sensor_id;sensor_type;location;lat;lon;timestamp;P1;durP1;ratioP1;P2;durP2;ratioP2
71042;SDS011;58696;52.134;5.500;2024-01-30T00:00:07;11.95;;;6.72;;
71042;SDS011;58696;52.134;5.500;2024-01-30T00:02:34;10.80;;;6.97;;
71042;SDS011;58696;52.134;5.500;2024-01-30T00:05:03;9.85;;;6.93;;
71042;SDS011;58696;52.134;5.500;2024-01-30T00:07:32;8.43;;;6.30;;
71042;SDS011;58696;52.134;5.500;2024-01-30T00:10:02;10.23;;;6.45;;
71042;SDS011;58696;52.134;5.500;2024-01-30T00:12:29;7.55;;;6.18;;
71042;SDS011;58696;52.134;5.500;2024-01-30T00:14:55;10.23;;;6.70;;
71042;SDS011;58696;52.134;5.500;2024-01-30T00:17:22;11.90;;;6.82;;
71042;SDS011;58696;52.134;5.500;2024-01-30T00:19:49;10.23;;;7.07;;
71042;SDS011;58696;52.134;5.500;2024-01-30T00:22:15;11.40;;;6.60;;
71042;SDS011;58696;52.134;5.500;2024-01-30T00:24:45;9.43;;;6.13;;
71042;SDS011;58696;52.134;5.500;2024-01-30T00:27:14;8.27;;;6.35;;
71042;SDS011;58696;52.134;5.500;2024-01-30T00:29:42;10.23;;;6.25;;
71042;SDS011;58696;52.134;5.500;2024-01-30T00:32:12;10.63;;;6.65;;
71042;SDS011;58696;52.134;5.500;2024-01-30T00:34:38;11.63;;;6.88;;
71042;SDS011;58696;52.134;5.500;2024-01-30T00:37:05;7.70;;;6.20;;
71042;SDS011;58696;52.134;5.500;2024-01-30T00:39:34;11.48;;;6.63;;
71042;SDS011;58696;52.134;5.500;2024-01-30T00:42:00;13.93;;;6.80;;
71042;SDS011;58696;52.134;5.500;2024-01-30T00:44:27;8.63;;;6.75;;
71042;SDS011;58696;52.134;5.500;2024-01-30T00:46:56;9.30;;;6.60;;
71042;SDS011;58696;52.134;5.500;2024-01-30T00:49:23;10.82;;;6.68;;
71042;SDS011;58696;52.134;5.500;2024-01-30T00:51:49;9.80;;;6.43;;
71042;SDS011;58696;52.134;5.500;2024-01-30T00:54:16;8.38;;;6.32;;
71042;SDS011;58696;52.134;5.500;2024-01-30T00:56:43;12.25;;;6.47;;
71042;SDS011;58696;52.134;5.500;2024-01-30T00:59:10;7.97;;;6.38;;
71042;SDS011;58696;52.134;5.500;2024-01-30T01:01:42;8.25;;;6.43;;
71042;SDS011;58696;52.134;5.500;2024-01-30T01:04:11;10.80;;;7.35;;
71042;SDS011;58696;52.134;5.500;2024-01-30T01:06:38;9.98;;;6.63;;
71042;SDS011;58696;52.134;5.500;2024-01-30T01:09:04;10.50;;;6.32;;
71042;SDS011;58696;52.134;5.500;2024-01-30T01:11:31;7.47;;;6.25;;
71042;SDS011;58696;52.134;5.500;2024-01-30T01:13:58;9.43;;;6.22;;
71042;SDS011;58696;52.134;5.500;2024-01-30T01:16:27;8.48;;;6.55;;
71042;SDS011;58696;52.134;5.500;2024-01-30T01:18:56;9.40;;;6.65;;
71042;SDS011;58696;52.134;5.500;2024-01-30T01:21:23;12.27;;;6.18;;
71042;SDS011;58696;52.134;5.500;2024-01-30T01:23:52;7.40;;;6.28;;
71042;SDS011;58696;52.134;5.500;2024-01-30T01:26:18;8.60;;;6.50;;
71042;SDS011;58696;52.134;5.500;2024-01-30T01:28:45;10.00;;;6.72;;
71042;SDS011;58696;52.134;5.500;2024-01-30T01:31:14;7.18;;;6.28;;
71042;SDS011;58696;52.134;5.500;2024-01-30T01:33:44;10.95;;;6.07;;
71042;SDS011;58696;52.134;5.500;2024-01-30T01:36:13;13.20;;;6.05;;
71042;SDS011;58696;52.134;5.500;2024-01-30T01:38:40;18.50;;;7.10;;
71042;SDS011;58696;52.134;5.500;2024-01-30T01:41:07;10.68;;;7.05;;
71042;SDS011;58696;52.134;5.500;2024-01-30T01:43:34;7.82;;;6.13;;
71042;SDS011;58696;52.134;5.500;2024-01-30T01:46:04;8.52;;;6.57;;
71042;SDS011;58696;52.134;5.500;2024-01-30T01:48:34;9.43;;;6.50;;
71042;SDS011;58696;52.134;5.500;2024-01-30T01:51:06;11.38;;;7.25;;
71042;SDS011;58696;52.134;5.500;2024-01-30T01:53:33;7.93;;;6.35;;
71042;SDS011;58696;52.134;5.500;2024-01-30T01:56:02;9.43;;;6.47;;
71042;SDS011;58696;52.134;5.500;2024-01-30T01:58:29;8.75;;;6.45;;
71042;SDS011;58696;52.134;5.500;2024-01-30T02:00:56;9.75;;;6.22;;
71042;SDS011;58696;52.134;5.500;2024-01-30T02:03:24;9.55;;;6.78;;
71042;SDS011;58696;52.134;5.500;2024-01-30T02:05:53;10.07;;;6.15;;
71042;SDS011;58696;52.134;5.500;2024-01-30T02:08:21;8.98;;;6.07;;
71042;SDS011;58696;52.134;5.500;2024-01-30T02:10:48;8.45;;;6.38;;
71042;SDS011;58696;52.134;5.500;2024-01-30T02:13:17;9.15;;;6.05;;
71042;SDS011;58696;52.134;5.500;2024-01-30T02:15:43;9.75;;;6.55;;
71042;SDS011;58696;52.134;5.500;2024-01-30T02:18:18;8.40;;;6.60;;
71042;SDS011;58696;52.134;5.500;2024-01-30T02:20:46;12.77;;;7.00;;
71042;SDS011;58696;52.134;5.500;2024-01-30T02:23:12;8.45;;;6.63;;
71042;SDS011;58696;52.134;5.500;2024-01-30T02:25:43;7.85;;;6.18;;
71042;SDS011;58696;52.134;5.500;2024-01-30T02:28:15;10.93;;;6.47;;
71042;SDS011;58696;52.134;5.500;2024-01-30T02:30:45;10.82;;;5.88;;
71042;SDS011;58696;52.134;5.500;2024-01-30T02:33:13;8.63;;;5.75;;
71042;SDS011;58696;52.134;5.500;2024-01-30T02:35:42;8.77;;;5.78;;
71042;SDS011;58696;52.134;5.500;2024-01-30T02:38:11;10.30;;;6.28;;
71042;SDS011;58696;52.134;5.500;2024-01-30T02:40:39;7.78;;;5.72;;
71042;SDS011;58696;52.134;5.500;2024-01-30T02:43:06;7.90;;;6.05;;
71042;SDS011;58696;52.134;5.500;2024-01-30T02:45:33;7.75;;;5.57;;
71042;SDS011;58696;52.134;5.500;2024-01-30T02:48:01;9.63;;;6.15;;
71042;SDS011;58696;52.134;5.500;2024-01-30T02:50:28;7.05;;;5.50;;
71042;SDS011;58696;52.134;5.500;2024-01-30T02:53:00;9.88;;;6.18;;
71042;SDS011;58696;52.134;5.500;2024-01-30T02:55:31;7.88;;;5.75;;
71042;SDS011;58696;52.134;5.500;2024-01-30T02:58:01;8.35;;;6.07;;
71042;SDS011;58696;52.134;5.500;2024-01-30T03:00:33;10.90;;;6.47;;
71042;SDS011;58696;52.134;5.500;2024-01-30T03:03:02;8.43;;;6.30;;
71042;SDS011;58696;52.134;5.500;2024-01-30T03:05:28;9.05;;;5.93;;
71042;SDS011;58696;52.134;5.500;2024-01-30T03:07:55;8.15;;;5.90;;
71042;SDS011;58696;52.134;5.500;2024-01-30T03:10:27;11.05;;;7.30;;
71042;SDS011;58696;52.134;5.500;2024-01-30T03:12:53;9.40;;;6.95;;
71042;SDS011;58696;52.134;5.500;2024-01-30T03:15:22;10.13;;;7.20;;
71042;SDS011;58696;52.134;5.500;2024-01-30T03:17:51;12.60;;;7.28;;
71042;SDS011;58696;52.134;5.500;2024-01-30T03:20:20;16.48;;;7.70;;
71042;SDS011;58696;52.134;5.500;2024-01-30T03:22:47;12.40;;;7.88;;
71042;SDS011;58696;52.134;5.500;2024-01-30T03:25:13;13.32;;;7.68;;
71042;SDS011;58696;52.134;5.500;2024-01-30T03:27:40;12.10;;;7.05;;
71042;SDS011;58696;52.134;5.500;2024-01-30T03:30:07;10.55;;;7.28;;
71042;SDS011;58696;52.134;5.500;2024-01-30T03:32:34;12.38;;;6.95;;
71042;SDS011;58696;52.134;5.500;2024-01-30T03:35:00;11.80;;;6.85;;
71042;SDS011;58696;52.134;5.500;2024-01-30T03:37:27;10.05;;;6.38;;
71042;SDS011;58696;52.134;5.500;2024-01-30T03:39:54;10.10;;;6.22;;
71042;SDS011;58696;52.134;5.500;2024-01-30T03:42:21;10.70;;;7.30;;
71042;SDS011;58696;52.134;5.500;2024-01-30T03:44:52;9.50;;;6.43;;
71042;SDS011;58696;52.134;5.500;2024-01-30T03:47:19;10.60;;;6.85;;
71042;SDS011;58696;52.134;5.500;2024-01-30T03:49:47;8.98;;;6.10;;
71042;SDS011;58696;52.134;5.500;2024-01-30T03:52:14;8.48;;;6.28;;
71042;SDS011;58696;52.134;5.500;2024-01-30T03:54:45;10.25;;;5.78;;
71042;SDS011;58696;52.134;5.500;2024-01-30T03:57:12;8.02;;;5.38;;
71042;SDS011;58696;52.134;5.500;2024-01-30T03:59:41;8.18;;;5.15;;
71042;SDS011;58696;52.134;5.500;2024-01-30T04:02:09;9.95;;;5.50;;
71042;SDS011;58696;52.134;5.500;2024-01-30T04:04:39;12.48;;;6.03;;
71042;SDS011;58696;52.134;5.500;2024-01-30T04:07:08;12.40;;;5.78;;
71042;SDS011;58696;52.134;5.500;2024-01-30T04:09:38;9.48;;;5.97;;
71042;SDS011;58696;52.134;5.500;2024-01-30T04:12:08;7.65;;;5.47;;
71042;SDS011;58696;52.134;5.500;2024-01-30T04:14:34;7.35;;;4.85;;
71042;SDS011;58696;52.134;5.500;2024-01-30T04:17:01;9.75;;;5.65;;
71042;SDS011;58696;52.134;5.500;2024-01-30T04:19:28;10.82;;;5.07;;
71042;SDS011;58696;52.134;5.500;2024-01-30T04:21:55;10.02;;;5.25;;
71042;SDS011;58696;52.134;5.500;2024-01-30T04:24:21;8.00;;;5.32;;
71042;SDS011;58696;52.134;5.500;2024-01-30T04:26:48;7.78;;;4.75;;
71042;SDS011;58696;52.134;5.500;2024-01-30T04:29:14;6.95;;;5.10;;
71042;SDS011;58696;52.134;5.500;2024-01-30T04:31:41;6.93;;;5.40;;
71042;SDS011;58696;52.134;5.500;2024-01-30T04:34:10;6.05;;;4.10;;
71042;SDS011;58696;52.134;5.500;2024-01-30T04:36:39;5.63;;;4.80;;
71042;SDS011;58696;52.134;5.500;2024-01-30T04:39:06;9.40;;;5.70;;
71042;SDS011;58696;52.134;5.500;2024-01-30T04:41:37;11.13;;;5.70;;
71042;SDS011;58696;52.134;5.500;2024-01-30T04:44:03;8.50;;;5.28;;
71042;SDS011;58696;52.134;5.500;2024-01-30T04:46:33;7.60;;;5.28;;
71042;SDS011;58696;52.134;5.500;2024-01-30T04:49:02;11.23;;;5.20;;
71042;SDS011;58696;52.134;5.500;2024-01-30T04:51:29;9.27;;;5.40;;
71042;SDS011;58696;52.134;5.500;2024-01-30T04:53:56;7.47;;;5.22;;
71042;SDS011;58696;52.134;5.500;2024-01-30T04:56:22;7.35;;;5.13;;
71042;SDS011;58696;52.134;5.500;2024-01-30T04:58:49;7.13;;;5.18;;
71042;SDS011;58696;52.134;5.500;2024-01-30T05:01:16;7.05;;;5.15;;
71042;SDS011;58696;52.134;5.500;2024-01-30T05:03:43;8.87;;;5.00;;
71042;SDS011;58696;52.134;5.500;2024-01-30T05:06:12;9.73;;;4.80;;
71042;SDS011;58696;52.134;5.500;2024-01-30T05:08:39;7.13;;;5.35;;
71042;SDS011;58696;52.134;5.500;2024-01-30T05:11:08;8.95;;;5.10;;
71042;SDS011;58696;52.134;5.500;2024-01-30T05:13:34;7.55;;;5.35;;
71042;SDS011;58696;52.134;5.500;2024-01-30T05:16:02;6.85;;;5.38;;
71042;SDS011;58696;52.134;5.500;2024-01-30T05:18:30;11.52;;;4.90;;
71042;SDS011;58696;52.134;5.500;2024-01-30T05:20:57;9.57;;;4.53;;
71042;SDS011;58696;52.134;5.500;2024-01-30T05:23:26;6.50;;;4.35;;
71042;SDS011;58696;52.134;5.500;2024-01-30T05:25:53;9.85;;;5.32;;
71042;SDS011;58696;52.134;5.500;2024-01-30T05:28:22;6.15;;;4.70;;
71042;SDS011;58696;52.134;5.500;2024-01-30T05:30:51;9.52;;;5.18;;
71042;SDS011;58696;52.134;5.500;2024-01-30T05:33:22;9.90;;;5.18;;
71042;SDS011;58696;52.134;5.500;2024-01-30T05:35:51;6.82;;;4.75;;
71042;SDS011;58696;52.134;5.500;2024-01-30T05:38:20;6.75;;;5.10;;
71042;SDS011;58696;52.134;5.500;2024-01-30T05:40:49;9.95;;;5.40;;
71042;SDS011;58696;52.134;5.500;2024-01-30T05:43:16;9.63;;;4.80;;
71042;SDS011;58696;52.134;5.500;2024-01-30T05:45:42;7.97;;;5.03;;
71042;SDS011;58696;52.134;5.500;2024-01-30T05:48:09;5.97;;;4.32;;
71042;SDS011;58696;52.134;5.500;2024-01-30T05:50:36;5.68;;;4.57;;
71042;SDS011;58696;52.134;5.500;2024-01-30T05:53:05;9.48;;;5.28;;
71042;SDS011;58696;52.134;5.500;2024-01-30T05:55:31;6.25;;;4.15;;
71042;SDS011;58696;52.134;5.500;2024-01-30T05:58:00;9.70;;;5.10;;
71042;SDS011;58696;52.134;5.500;2024-01-30T06:00:29;9.63;;;4.88;;
71042;SDS011;58696;52.134;5.500;2024-01-30T06:02:58;7.43;;;4.72;;
71042;SDS011;58696;52.134;5.500;2024-01-30T06:05:27;6.32;;;4.88;;
71042;SDS011;58696;52.134;5.500;2024-01-30T06:07:56;8.50;;;4.68;;
71042;SDS011;58696;52.134;5.500;2024-01-30T06:10:25;7.90;;;4.63;;
71042;SDS011;58696;52.134;5.500;2024-01-30T06:12:57;5.78;;;4.47;;
71042;SDS011;58696;52.134;5.500;2024-01-30T06:15:26;6.72;;;5.13;;
71042;SDS011;58696;52.134;5.500;2024-01-30T06:17:56;6.55;;;5.00;;
71042;SDS011;58696;52.134;5.500;2024-01-30T06:20:25;9.38;;;4.65;;
71042;SDS011;58696;52.134;5.500;2024-01-30T06:22:54;7.85;;;4.65;;
71042;SDS011;58696;52.134;5.500;2024-01-30T06:25:21;6.57;;;3.88;;
71042;SDS011;58696;52.134;5.500;2024-01-30T06:27:48;5.88;;;4.70;;
71042;SDS011;58696;52.134;5.500;2024-01-30T06:30:19;6.80;;;4.68;;
71042;SDS011;58696;52.134;5.500;2024-01-30T06:32:48;6.15;;;4.30;;
71042;SDS011;58696;52.134;5.500;2024-01-30T06:35:15;7.53;;;4.80;;
71042;SDS011;58696;52.134;5.500;2024-01-30T06:37:44;7.43;;;4.82;;
71042;SDS011;58696;52.134;5.500;2024-01-30T06:40:12;6.10;;;4.72;;
71042;SDS011;58696;52.134;5.500;2024-01-30T06:42:39;6.05;;;4.35;;
71042;SDS011;58696;52.134;5.500;2024-01-30T06:45:06;7.00;;;4.97;;
71042;SDS011;58696;52.134;5.500;2024-01-30T06:47:41;8.55;;;4.97;;
71042;SDS011;58696;52.134;5.500;2024-01-30T06:50:10;5.25;;;4.32;;
71042;SDS011;58696;52.134;5.500;2024-01-30T06:52:36;9.20;;;5.00;;
71042;SDS011;58696;52.134;5.500;2024-01-30T06:55:03;10.52;;;5.03;;
71042;SDS011;58696;52.134;5.500;2024-01-30T06:57:32;8.27;;;4.80;;
71042;SDS011;58696;52.134;5.500;2024-01-30T06:59:59;7.88;;;4.90;;
71042;SDS011;58696;52.134;5.500;2024-01-30T07:02:30;8.60;;;4.80;;
71042;SDS011;58696;52.134;5.500;2024-01-30T07:05:01;7.88;;;4.88;;
71042;SDS011;58696;52.134;5.500;2024-01-30T07:07:31;6.53;;;4.47;;
71042;SDS011;58696;52.134;5.500;2024-01-30T07:09:59;9.00;;;4.80;;
71042;SDS011;58696;52.134;5.500;2024-01-30T07:12:25;5.80;;;4.47;;
71042;SDS011;58696;52.134;5.500;2024-01-30T07:14:52;9.68;;;5.07;;
71042;SDS011;58696;52.134;5.500;2024-01-30T07:17:19;6.25;;;4.60;;
71042;SDS011;58696;52.134;5.500;2024-01-30T07:19:48;6.47;;;4.68;;
71042;SDS011;58696;52.134;5.500;2024-01-30T07:22:18;7.00;;;4.78;;
71042;SDS011;58696;52.134;5.500;2024-01-30T07:24:45;6.07;;;4.70;;
71042;SDS011;58696;52.134;5.500;2024-01-30T07:27:14;5.65;;;4.63;;
71042;SDS011;58696;52.134;5.500;2024-01-30T07:29:40;7.88;;;4.50;;
71042;SDS011;58696;52.134;5.500;2024-01-30T07:32:09;8.45;;;4.57;;
71042;SDS011;58696;52.134;5.500;2024-01-30T07:34:36;9.20;;;4.60;;
71042;SDS011;58696;52.134;5.500;2024-01-30T07:37:15;6.55;;;4.63;;
71042;SDS011;58696;52.134;5.500;2024-01-30T07:39:42;6.65;;;4.75;;
71042;SDS011;58696;52.134;5.500;2024-01-30T07:42:09;6.47;;;4.43;;
71042;SDS011;58696;52.134;5.500;2024-01-30T07:44:35;7.05;;;4.63;;
71042;SDS011;58696;52.134;5.500;2024-01-30T07:47:07;7.68;;;5.05;;
71042;SDS011;58696;52.134;5.500;2024-01-30T07:49:34;6.05;;;4.50;;
71042;SDS011;58696;52.134;5.500;2024-01-30T07:52:01;6.55;;;4.30;;
71042;SDS011;58696;52.134;5.500;2024-01-30T07:54:30;4.95;;;4.43;;
71042;SDS011;58696;52.134;5.500;2024-01-30T07:57:00;7.82;;;4.97;;
71042;SDS011;58696;52.134;5.500;2024-01-30T07:59:29;4.90;;;4.40;;
71042;SDS011;58696;52.134;5.500;2024-01-30T08:01:56;9.95;;;4.60;;
71042;SDS011;58696;52.134;5.500;2024-01-30T08:04:27;7.35;;;4.80;;
71042;SDS011;58696;52.134;5.500;2024-01-30T08:06:58;7.03;;;4.53;;
71042;SDS011;58696;52.134;5.500;2024-01-30T08:09:25;6.82;;;4.68;;
71042;SDS011;58696;52.134;5.500;2024-01-30T08:11:51;5.93;;;4.55;;
71042;SDS011;58696;52.134;5.500;2024-01-30T08:14:18;6.30;;;4.78;;
71042;SDS011;58696;52.134;5.500;2024-01-30T08:16:44;6.10;;;4.55;;
71042;SDS011;58696;52.134;5.500;2024-01-30T08:19:14;9.40;;;5.38;;
71042;SDS011;58696;52.134;5.500;2024-01-30T08:21:46;5.88;;;4.63;;
71042;SDS011;58696;52.134;5.500;2024-01-30T08:24:13;6.88;;;4.75;;
71042;SDS011;58696;52.134;5.500;2024-01-30T08:26:42;13.38;;;4.85;;
71042;SDS011;58696;52.134;5.500;2024-01-30T08:29:08;7.93;;;5.20;;
71042;SDS011;58696;52.134;5.500;2024-01-30T08:31:35;4.93;;;4.20;;
71042;SDS011;58696;52.134;5.500;2024-01-30T08:34:02;9.02;;;4.90;;
71042;SDS011;58696;52.134;5.500;2024-01-30T08:36:29;7.45;;;4.95;;
71042;SDS011;58696;52.134;5.500;2024-01-30T08:38:55;7.68;;;4.53;;
71042;SDS011;58696;52.134;5.500;2024-01-30T08:41:28;9.80;;;5.10;;
71042;SDS011;58696;52.134;5.500;2024-01-30T08:43:55;8.88;;;4.60;;
71042;SDS011;58696;52.134;5.500;2024-01-30T08:46:21;8.10;;;5.10;;
71042;SDS011;58696;52.134;5.500;2024-01-30T08:48:48;7.65;;;4.90;;
71042;SDS011;58696;52.134;5.500;2024-01-30T08:51:18;5.72;;;4.35;;
71042;SDS011;58696;52.134;5.500;2024-01-30T08:53:44;10.23;;;5.25;;
71042;SDS011;58696;52.134;5.500;2024-01-30T08:56:11;13.15;;;5.50;;
71042;SDS011;58696;52.134;5.500;2024-01-30T08:58:38;12.38;;;5.22;;
71042;SDS011;58696;52.134;5.500;2024-01-30T09:01:04;11.45;;;5.63;;
71042;SDS011;58696;52.134;5.500;2024-01-30T09:03:32;10.77;;;5.10;;
71042;SDS011;58696;52.134;5.500;2024-01-30T09:06:02;8.23;;;5.18;;
71042;SDS011;58696;52.134;5.500;2024-01-30T09:08:29;9.15;;;4.80;;
71042;SDS011;58696;52.134;5.500;2024-01-30T09:11:00;9.23;;;5.85;;
71042;SDS011;58696;52.134;5.500;2024-01-30T09:13:27;6.50;;;4.97;;
71042;SDS011;58696;52.134;5.500;2024-01-30T09:15:58;8.18;;;5.30;;
71042;SDS011;58696;52.134;5.500;2024-01-30T09:18:24;8.15;;;5.53;;
71042;SDS011;58696;52.134;5.500;2024-01-30T09:20:56;7.72;;;5.00;;
71042;SDS011;58696;52.134;5.500;2024-01-30T09:23:22;10.52;;;5.28;;
71042;SDS011;58696;52.134;5.500;2024-01-30T09:25:51;13.95;;;5.70;;
71042;SDS011;58696;52.134;5.500;2024-01-30T09:28:18;8.43;;;4.68;;
71042;SDS011;58696;52.134;5.500;2024-01-30T09:30:45;10.70;;;5.45;;
71042;SDS011;58696;52.134;5.500;2024-01-30T09:33:11;11.35;;;4.90;;
71042;SDS011;58696;52.134;5.500;2024-01-30T09:35:41;11.13;;;5.43;;
71042;SDS011;58696;52.134;5.500;2024-01-30T09:38:07;10.18;;;5.00;;
71042;SDS011;58696;52.134;5.500;2024-01-30T09:40:36;7.28;;;4.78;;
71042;SDS011;58696;52.134;5.500;2024-01-30T09:43:03;7.38;;;4.93;;
71042;SDS011;58696;52.134;5.500;2024-01-30T09:45:30;14.13;;;5.70;;
71042;SDS011;58696;52.134;5.500;2024-01-30T09:48:06;8.23;;;4.85;;
71042;SDS011;58696;52.134;5.500;2024-01-30T09:50:35;9.43;;;4.70;;
71042;SDS011;58696;52.134;5.500;2024-01-30T09:55:30;9.75;;;5.35;;
71042;SDS011;58696;52.134;5.500;2024-01-30T09:57:57;11.38;;;6.07;;
71042;SDS011;58696;52.134;5.500;2024-01-30T10:00:23;7.32;;;4.95;;
71042;SDS011;58696;52.134;5.500;2024-01-30T10:02:56;11.18;;;4.93;;
71042;SDS011;58696;52.134;5.500;2024-01-30T10:05:23;14.73;;;4.88;;
71042;SDS011;58696;52.134;5.500;2024-01-30T10:07:53;7.32;;;4.95;;
71042;SDS011;58696;52.134;5.500;2024-01-30T10:10:23;6.90;;;4.25;;
71042;SDS011;58696;52.134;5.500;2024-01-30T10:12:52;11.90;;;4.75;;
71042;SDS011;58696;52.134;5.500;2024-01-30T10:15:19;9.73;;;4.70;;
71042;SDS011;58696;52.134;5.500;2024-01-30T10:17:46;10.60;;;4.80;;
71042;SDS011;58696;52.134;5.500;2024-01-30T10:20:13;7.10;;;4.65;;
71042;SDS011;58696;52.134;5.500;2024-01-30T10:22:42;7.63;;;4.85;;
71042;SDS011;58696;52.134;5.500;2024-01-30T10:25:13;7.72;;;5.30;;
71042;SDS011;58696;52.134;5.500;2024-01-30T10:27:39;10.40;;;4.95;;
71042;SDS011;58696;52.134;5.500;2024-01-30T10:30:09;8.18;;;4.05;;
71042;SDS011;58696;52.134;5.500;2024-01-30T10:32:38;8.13;;;4.63;;
71042;SDS011;58696;52.134;5.500;2024-01-30T10:35:05;16.85;;;4.95;;
71042;SDS011;58696;52.134;5.500;2024-01-30T10:37:35;9.95;;;5.05;;
71042;SDS011;58696;52.134;5.500;2024-01-30T10:40:04;12.55;;;5.13;;
71042;SDS011;58696;52.134;5.500;2024-01-30T10:42:37;12.30;;;4.88;;
71042;SDS011;58696;52.134;5.500;2024-01-30T10:45:10;7.85;;;4.30;;
71042;SDS011;58696;52.134;5.500;2024-01-30T10:47:52;10.43;;;5.20;;
71042;SDS011;58696;52.134;5.500;2024-01-30T10:50:23;10.07;;;5.03;;
71042;SDS011;58696;52.134;5.500;2024-01-30T10:52:53;13.68;;;4.88;;
71042;SDS011;58696;52.134;5.500;2024-01-30T10:55:21;11.32;;;5.10;;
71042;SDS011;58696;52.134;5.500;2024-01-30T10:57:50;7.65;;;5.15;;
71042;SDS011;58696;52.134;5.500;2024-01-30T11:00:20;11.43;;;4.97;;
71042;SDS011;58696;52.134;5.500;2024-01-30T11:02:50;6.57;;;4.60;;
71042;SDS011;58696;52.134;5.500;2024-01-30T11:07:59;6.30;;;4.20;;
71042;SDS011;58696;52.134;5.500;2024-01-30T11:10:25;18.02;;;4.80;;
71042;SDS011;58696;52.134;5.500;2024-01-30T11:12:52;6.30;;;4.10;;
71042;SDS011;58696;52.134;5.500;2024-01-30T11:15:19;6.25;;;4.45;;
71042;SDS011;58696;52.134;5.500;2024-01-30T11:20:19;11.00;;;3.97;;
71042;SDS011;58696;52.134;5.500;2024-01-30T11:22:46;7.65;;;4.75;;
71042;SDS011;58696;52.134;5.500;2024-01-30T11:25:25;9.45;;;4.88;;
71042;SDS011;58696;52.134;5.500;2024-01-30T11:27:58;11.82;;;4.68;;
71042;SDS011;58696;52.134;5.500;2024-01-30T11:30:28;7.25;;;4.40;;
71042;SDS011;58696;52.134;5.500;2024-01-30T11:33:05;6.15;;;4.30;;
71042;SDS011;58696;52.134;5.500;2024-01-30T11:35:39;8.85;;;4.25;;
71042;SDS011;58696;52.134;5.500;2024-01-30T11:38:14;12.35;;;4.65;;
71042;SDS011;58696;52.134;5.500;2024-01-30T11:40:43;6.00;;;3.75;;
71042;SDS011;58696;52.134;5.500;2024-01-30T11:43:10;6.18;;;4.05;;
71042;SDS011;58696;52.134;5.500;2024-01-30T11:45:38;6.35;;;3.45;;
71042;SDS011;58696;52.134;5.500;2024-01-30T11:48:11;5.03;;;3.17;;
71042;SDS011;58696;52.134;5.500;2024-01-30T11:53:17;6.30;;;2.47;;
71042;SDS011;58696;52.134;5.500;2024-01-30T11:55:49;4.28;;;2.17;;
71042;SDS011;58696;52.134;5.500;2024-01-30T11:58:17;4.32;;;2.03;;
71042;SDS011;58696;52.134;5.500;2024-01-30T12:00:52;6.15;;;2.08;;
71042;SDS011;58696;52.134;5.500;2024-01-30T12:03:20;2.42;;;1.40;;
71042;SDS011;58696;52.134;5.500;2024-01-30T12:05:54;3.60;;;1.85;;
71042;SDS011;58696;52.134;5.500;2024-01-30T12:08:26;4.60;;;1.75;;
71042;SDS011;58696;52.134;5.500;2024-01-30T12:10:58;6.57;;;1.73;;
71042;SDS011;58696;52.134;5.500;2024-01-30T12:13:25;7.10;;;1.60;;
71042;SDS011;58696;52.134;5.500;2024-01-30T12:16:00;3.95;;;1.48;;
71042;SDS011;58696;52.134;5.500;2024-01-30T12:18:30;4.35;;;1.40;;
71042;SDS011;58696;52.134;5.500;2024-01-30T12:21:01;14.13;;;1.50;;
71042;SDS011;58696;52.134;5.500;2024-01-30T12:23:28;3.13;;;1.20;;
71042;SDS011;58696;52.134;5.500;2024-01-30T12:25:58;3.15;;;1.10;;
71042;SDS011;58696;52.134;5.500;2024-01-30T12:28:25;2.03;;;1.10;;
71042;SDS011;58696;52.134;5.500;2024-01-30T12:30:56;3.22;;;1.20;;
71042;SDS011;58696;52.134;5.500;2024-01-30T12:33:27;2.50;;;0.90;;
71042;SDS011;58696;52.134;5.500;2024-01-30T12:35:55;4.43;;;2.38;;
71042;SDS011;58696;52.134;5.500;2024-01-30T12:38:29;2.85;;;1.67;;
71042;SDS011;58696;52.134;5.500;2024-01-30T12:41:00;5.68;;;2.17;;
71042;SDS011;58696;52.134;5.500;2024-01-30T12:43:27;4.78;;;1.83;;
71042;SDS011;58696;52.134;5.500;2024-01-30T12:46:04;5.05;;;1.85;;
71042;SDS011;58696;52.134;5.500;2024-01-30T12:48:39;5.00;;;1.50;;
71042;SDS011;58696;52.134;5.500;2024-01-30T12:51:05;6.95;;;1.65;;
71042;SDS011;58696;52.134;5.500;2024-01-30T12:53:32;3.08;;;1.20;;
71042;SDS011;58696;52.134;5.500;2024-01-30T12:55:59;3.75;;;1.25;;
71042;SDS011;58696;52.134;5.500;2024-01-30T12:58:25;4.85;;;1.85;;
71042;SDS011;58696;52.134;5.500;2024-01-30T13:00:52;3.40;;;1.73;;
71042;SDS011;58696;52.134;5.500;2024-01-30T13:05:49;3.80;;;1.50;;
71042;SDS011;58696;52.134;5.500;2024-01-30T13:08:16;3.28;;;1.55;;
71042;SDS011;58696;52.134;5.500;2024-01-30T13:10:42;5.47;;;2.25;;
71042;SDS011;58696;52.134;5.500;2024-01-30T13:13:11;1.38;;;1.00;;
71042;SDS011;58696;52.134;5.500;2024-01-30T13:15:45;2.97;;;1.50;;
71042;SDS011;58696;52.134;5.500;2024-01-30T13:18:12;4.93;;;1.33;;
71042;SDS011;58696;52.134;5.500;2024-01-30T13:20:42;4.32;;;1.35;;
71042;SDS011;58696;52.134;5.500;2024-01-30T13:23:08;3.05;;;1.20;;
71042;SDS011;58696;52.134;5.500;2024-01-30T13:25:37;3.78;;;1.10;;
71042;SDS011;58696;52.134;5.500;2024-01-30T13:28:06;4.18;;;1.35;;
71042;SDS011;58696;52.134;5.500;2024-01-30T13:30:33;1.13;;;0.75;;
71042;SDS011;58696;52.134;5.500;2024-01-30T13:33:02;3.08;;;1.15;;
71042;SDS011;58696;52.134;5.500;2024-01-30T13:35:32;1.10;;;0.97;;
71042;SDS011;58696;52.134;5.500;2024-01-30T13:37:58;6.30;;;0.90;;
71042;SDS011;58696;52.134;5.500;2024-01-30T13:40:25;1.60;;;1.00;;
71042;SDS011;58696;52.134;5.500;2024-01-30T13:42:52;3.30;;;0.65;;
71042;SDS011;58696;52.134;5.500;2024-01-30T13:45:22;2.50;;;1.10;;
71042;SDS011;58696;52.134;5.500;2024-01-30T13:47:49;0.98;;;0.70;;
71042;SDS011;58696;52.134;5.500;2024-01-30T13:50:16;3.65;;;1.30;;
71042;SDS011;58696;52.134;5.500;2024-01-30T13:52:45;2.92;;;1.00;;
71042;SDS011;58696;52.134;5.500;2024-01-30T13:55:11;1.30;;;0.90;;
71042;SDS011;58696;52.134;5.500;2024-01-30T13:57:41;3.45;;;0.88;;
71042;SDS011;58696;52.134;5.500;2024-01-30T14:00:08;3.63;;;1.15;;
71042;SDS011;58696;52.134;5.500;2024-01-30T14:02:35;3.03;;;0.90;;
71042;SDS011;58696;52.134;5.500;2024-01-30T14:05:07;1.95;;;0.60;;
71042;SDS011;58696;52.134;5.500;2024-01-30T14:07:35;1.23;;;0.55;;
71042;SDS011;58696;52.134;5.500;2024-01-30T14:10:06;1.63;;;0.60;;
71042;SDS011;58696;52.134;5.500;2024-01-30T14:12:41;0.57;;;0.40;;
71042;SDS011;58696;52.134;5.500;2024-01-30T14:15:11;1.70;;;0.77;;
71042;SDS011;58696;52.134;5.500;2024-01-30T14:17:54;2.67;;;0.82;;
71042;SDS011;58696;52.134;5.500;2024-01-30T14:20:22;1.83;;;0.80;;
71042;SDS011;58696;52.134;5.500;2024-01-30T14:22:49;4.78;;;0.70;;
71042;SDS011;58696;52.134;5.500;2024-01-30T14:25:15;2.95;;;0.50;;
71042;SDS011;58696;52.134;5.500;2024-01-30T14:27:47;1.65;;;0.60;;
71042;SDS011;58696;52.134;5.500;2024-01-30T14:30:15;2.28;;;0.73;;
71042;SDS011;58696;52.134;5.500;2024-01-30T14:32:45;1.35;;;0.60;;
71042;SDS011;58696;52.134;5.500;2024-01-30T14:35:13;3.07;;;0.93;;
71042;SDS011;58696;52.134;5.500;2024-01-30T14:37:42;1.63;;;0.70;;
71042;SDS011;58696;52.134;5.500;2024-01-30T14:40:09;4.65;;;0.85;;
71042;SDS011;58696;52.134;5.500;2024-01-30T14:42:38;0.80;;;0.52;;
71042;SDS011;58696;52.134;5.500;2024-01-30T14:45:05;1.63;;;0.65;;
71042;SDS011;58696;52.134;5.500;2024-01-30T14:47:35;3.45;;;0.82;;
71042;SDS011;58696;52.134;5.500;2024-01-30T14:50:03;2.40;;;0.90;;
71042;SDS011;58696;52.134;5.500;2024-01-30T14:52:34;4.03;;;1.42;;
71042;SDS011;58696;52.134;5.500;2024-01-30T14:55:04;5.30;;;0.82;;
71042;SDS011;58696;52.134;5.500;2024-01-30T14:57:33;1.58;;;0.70;;
71042;SDS011;58696;52.134;5.500;2024-01-30T15:00:01;1.33;;;0.80;;
71042;SDS011;58696;52.134;5.500;2024-01-30T15:02:30;4.78;;;1.10;;
71042;SDS011;58696;52.134;5.500;2024-01-30T15:05:00;0.75;;;0.60;;